Cove, Utah
Current Conditions -  °F | °C
As of 2:51 AM on Tuesday 27 Jan 2015 (Local Time) from KLGU Reporting Station
Clear Clear  
Wind Chill: 27°   Ceiling: Unl
Heat Index: 27°   Visibility: 7mi
Dew Point: 25°   Wind: 0mph
Humidity: 92%   Direction: NA
Pressure: 30.19"   Gusts: NA
Location:  41.9637°N, 111.851°W
Report Text: KLGU 270951Z AUTO 00000KT 7SM CLR M03/M04 A3019 RMK AO2 SLP232 I1000 T10281039
Loading
Personal Weather Stations






























Interactive Weather Map New forecast layout! Learn more

10-Day Weather Forecast

Advertisements
Track Severe Weather on mobile